createdAt,value
2023-01-22T00:02:12.860Z,101707.88
2023-01-22T00:07:09.280Z,101706.19
2023-01-22T00:12:05.767Z,101707.88
2023-01-22T00:17:02.161Z,101707.09
2023-01-22T00:21:58.501Z,101694.91
2023-01-22T00:26:54.791Z,101708.81
2023-01-22T00:31:51.592Z,101696.59
2023-01-22T00:36:47.944Z,101686.16
2023-01-22T00:41:44.328Z,101699.22
2023-01-22T00:46:40.676Z,101689.63
2023-01-22T00:51:39.264Z,101684.28
2023-01-22T00:56:35.702Z,101688.66
2023-01-22T01:01:32.161Z,101687.78
2023-01-22T01:06:28.666Z,101690.50
2023-01-22T01:11:26.015Z,101702.66
2023-01-22T01:16:26.429Z,101688.81
2023-01-22T01:21:22.975Z,101680.03
2023-01-22T01:26:19.410Z,101693.88
2023-01-22T01:31:16.856Z,101670.44
2023-01-22T01:36:15.934Z,101675.72
2023-01-22T01:41:16.332Z,101671.38
2023-01-22T01:46:20.221Z,101680.03
2023-01-22T01:51:25.681Z,101672.97
2023-01-22T01:56:30.437Z,101672.97
2023-01-22T02:01:27.572Z,101667.72
2023-01-22T02:06:23.891Z,101677.25
2023-01-22T02:11:21.817Z,101671.22
2023-01-22T02:16:18.927Z,101661.66
2023-01-22T02:21:35.818Z,101668.53
2023-01-22T02:26:32.267Z,101664.19
2023-01-22T02:31:28.715Z,101651.06
2023-01-22T02:36:25.052Z,101656.34
2023-01-22T02:41:21.841Z,101647.63
2023-01-22T02:46:18.809Z,101651.94
2023-01-22T02:51:15.184Z,101653.66
2023-01-22T02:56:11.862Z,101664.13
2023-01-22T03:01:18.976Z,101647.56
2023-01-22T03:06:15.877Z,101650.94
2023-01-22T03:11:12.192Z,101641.41
2023-01-22T03:16:27.210Z,101642.22
2023-01-22T03:21:23.862Z,101642.16
2023-01-22T03:26:22.785Z,101636.88
2023-01-22T03:31:19.139Z,101642.06
2023-01-22T03:36:15.596Z,101636.81
2023-01-22T03:41:14.652Z,101639.44
2023-01-22T03:46:13.409Z,101636.94
2023-01-22T03:51:16.279Z,101631.66
2023-01-22T03:56:18.266Z,101637.63
2023-01-22T04:01:18.038Z,101647.22
2023-01-22T04:06:15.184Z,101637.63
2023-01-22T04:11:12.053Z,101647.22
2023-01-22T04:16:09.670Z,101636.81
2023-01-22T04:21:05.987Z,101637.69
2023-01-22T04:26:02.467Z,101642.91
2023-01-22T04:30:59.657Z,101643.84
2023-01-22T04:35:56.139Z,101645.59
2023-01-22T04:40:52.818Z,101645.66
2023-01-22T04:45:51.343Z,101640.47
2023-01-22T04:50:47.739Z,101638.78
2023-01-22T04:55:44.036Z,101644.88
2023-01-22T05:00:40.322Z,101641.41
2023-01-22T05:05:36.627Z,101655.41
2023-01-22T05:10:32.934Z,101651.91
2023-01-22T05:15:29.385Z,101649.25
2023-01-22T05:20:26.309Z,101657.97
2023-01-22T05:25:22.655Z,101643.22
2023-01-22T05:30:19.582Z,101643.16
2023-01-22T05:35:16.155Z,101650.19
2023-01-22T05:40:12.940Z,101645.81
2023-01-22T05:45:10.202Z,101654.41
2023-01-22T05:50:07.024Z,101657.09
2023-01-22T05:55:03.516Z,101654.47
2023-01-22T05:59:59.806Z,101655.34
2023-01-22T06:04:56.481Z,101650.00
2023-01-22T06:09:52.795Z,101659.66
2023-01-22T06:14:49.400Z,101653.63
2023-01-22T06:19:45.686Z,101657.03
2023-01-22T06:24:42.028Z,101650.81
2023-01-22T06:29:40.148Z,101655.25
2023-01-22T06:34:38.230Z,101648.31
2023-01-22T06:39:34.585Z,101653.56
2023-01-22T06:44:30.936Z,101656.22
2023-01-22T06:49:27.308Z,101661.41
2023-01-22T06:54:23.604Z,101678.91
2023-01-22T06:59:20.144Z,101672.75
2023-01-22T07:04:16.546Z,101689.31
2023-01-22T07:09:12.847Z,101692.72
2023-01-22T07:14:09.222Z,101698.91
2023-01-22T07:19:05.509Z,101706.75
2023-01-22T07:24:01.923Z,101711.03
2023-01-22T07:28:58.313Z,101713.72
2023-01-22T07:33:54.756Z,101719.66
2023-01-22T07:38:51.026Z,101720.59
2023-01-22T07:43:49.268Z,101725.84
2023-01-22T07:48:46.000Z,101732.84
2023-01-22T07:53:42.752Z,101742.38
2023-01-22T07:58:41.837Z,101741.56
2023-01-22T08:03:39.601Z,101751.94
2023-01-22T08:08:36.066Z,101753.69
2023-01-22T08:13:32.634Z,101762.41
2023-01-22T08:18:29.086Z,101758.91
2023-01-22T08:23:25.453Z,101758.09
2023-01-22T08:28:22.131Z,101767.44
2023-01-22T08:33:18.958Z,101774.56
2023-01-22T08:38:15.374Z,101771.94
2023-01-22T08:43:11.725Z,101777.16
2023-01-22T08:48:08.218Z,101783.22
2023-01-22T08:53:04.908Z,101785.69
2023-01-22T08:58:01.322Z,101782.28
2023-01-22T09:02:59.726Z,101784.91
2023-01-22T09:07:56.359Z,101782.16
2023-01-22T09:12:52.746Z,101783.72
2023-01-22T09:17:49.103Z,101782.03
2023-01-22T09:22:46.725Z,101782.03
2023-01-22T09:27:43.323Z,101782.03
2023-01-22T09:32:40.257Z,101781.91
2023-01-22T09:37:36.611Z,101781.91
2023-01-22T09:42:37.638Z,101785.28
2023-01-22T09:47:40.630Z,101779.13
2023-01-22T09:52:39.329Z,101783.53
2023-01-22T09:57:35.983Z,101790.53
2023-01-22T10:02:40.677Z,101790.53
2023-01-22T10:07:41.359Z,101774.75
2023-01-22T10:12:37.689Z,101767.81
2023-01-22T10:17:35.472Z,101752.94
2023-01-22T10:22:31.840Z,101766.50
2023-01-22T10:27:39.384Z,101761.06
2023-01-22T10:32:35.730Z,101754.66
2023-01-22T10:37:45.007Z,101749.00
2023-01-22T10:42:41.665Z,101752.28
2023-01-22T10:47:38.085Z,101744.91
2023-01-22T10:52:48.860Z,101744.72
2023-01-22T10:57:51.518Z,101755.94
2023-01-22T11:02:50.245Z,101744.03
2023-01-22T11:07:51.843Z,101745.75
2023-01-22T11:12:54.447Z,101737.59
2023-01-22T11:17:57.722Z,101743.19
2023-01-22T11:23:03.086Z,101746.19
2023-01-22T11:28:15.810Z,101749.53
2023-01-22T11:33:19.261Z,101747.94
2023-01-22T11:38:51.870Z,101750.03
2023-01-22T11:43:55.717Z,101748.31
2023-01-22T11:49:19.609Z,101756.22
2023-01-22T11:54:32.461Z,101748.25
2023-01-22T11:59:50.580Z,101765.56
2023-01-22T12:05:14.951Z,101749.47
2023-01-22T12:11:00.213Z,101752.38
2023-01-22T12:16:10.858Z,101751.81
2023-01-22T12:21:50.889Z,101747.28
2023-01-22T12:26:56.768Z,101747.47
2023-01-22T12:32:05.264Z,101744.97
2023-01-22T12:37:04.205Z,101750.53
2023-01-22T12:42:18.330Z,101747.13
2023-01-22T12:47:20.932Z,101749.59
2023-01-22T12:52:39.418Z,101758.41
2023-01-22T12:57:41.357Z,101759.00
2023-01-22T13:02:38.886Z,101757.97
2023-01-22T13:07:37.563Z,101762.56
2023-01-22T13:12:45.527Z,101769.56
2023-01-22T13:17:42.014Z,101774.78
2023-01-22T13:22:38.441Z,101763.50
2023-01-22T13:27:36.304Z,101766.06
2023-01-22T13:32:32.658Z,101761.91
2023-01-22T13:37:30.792Z,101777.63
2023-01-22T13:42:27.785Z,101787.28
2023-01-22T13:47:34.324Z,101786.41
2023-01-22T13:52:33.078Z,101788.16
2023-01-22T13:57:29.431Z,101789.97
2023-01-22T14:02:31.646Z,101799.38
2023-01-22T14:07:33.565Z,101807.38
2023-01-22T14:12:30.417Z,101801.34
2023-01-22T14:17:26.840Z,101803.94
2023-01-22T14:22:24.273Z,101818.53
2023-01-22T14:27:22.635Z,101807.38
2023-01-22T14:32:19.198Z,101810.81
2023-01-22T14:37:16.332Z,101825.72
2023-01-22T14:42:12.817Z,101824.84
2023-01-22T14:47:09.169Z,101833.63
2023-01-22T14:52:05.599Z,101844.13
2023-01-22T14:57:03.413Z,101853.66
2023-01-22T15:01:59.852Z,101854.53
2023-01-22T15:06:56.309Z,101854.50
2023-01-22T15:11:52.626Z,101864.19
2023-01-22T15:16:49.076Z,101871.13
2023-01-22T15:21:46.312Z,101883.31
2023-01-22T15:26:42.614Z,101892.72
2023-01-22T15:31:39.538Z,101900.66
2023-01-22T15:36:39.442Z,101899.88
2023-01-22T15:41:37.084Z,101905.06
2023-01-22T15:46:35.871Z,101910.28
2023-01-22T15:51:32.275Z,101907.66
2023-01-22T15:56:31.736Z,101920.69
2023-01-22T16:01:29.224Z,101925.06
2023-01-22T16:06:28.039Z,101913.75
2023-01-22T16:11:26.507Z,101915.50
2023-01-22T16:16:25.925Z,101915.56
2023-01-22T16:21:23.055Z,101924.22
2023-01-22T16:26:23.010Z,101918.16
2023-01-22T16:31:23.291Z,101921.63
2023-01-22T16:36:21.639Z,101922.53
2023-01-22T16:41:28.063Z,101932.09
2023-01-22T16:46:26.656Z,101930.28
2023-01-22T16:51:25.146Z,101930.28
2023-01-22T16:56:21.705Z,101925.06
2023-01-22T17:01:18.268Z,101942.53
2023-01-22T17:06:22.640Z,101953.72
2023-01-22T17:11:19.455Z,101946.78
2023-01-22T17:16:16.299Z,101953.72
2023-01-22T17:21:15.592Z,101951.09
2023-01-22T17:26:14.283Z,101953.66
2023-01-22T17:31:15.247Z,101958.91
2023-01-22T17:36:13.392Z,101951.94
2023-01-22T17:41:18.575Z,101945.03
2023-01-22T17:46:17.214Z,101952.84
2023-01-22T17:51:16.765Z,101957.31
2023-01-22T17:56:20.295Z,101965.06
2023-01-22T18:01:19.157Z,101959.09
2023-01-22T18:06:15.590Z,101967.75
2023-01-22T18:11:15.041Z,101975.59
2023-01-22T18:16:14.014Z,101986.06
2023-01-22T18:21:14.421Z,101995.66
2023-01-22T18:26:11.571Z,101994.78
2023-01-22T18:31:14.730Z,101993.97
2023-01-22T18:36:16.370Z,102005.25
2023-01-22T18:41:15.266Z,102013.06
2023-01-22T18:46:12.454Z,102018.38
2023-01-22T18:51:12.987Z,102027.06
2023-01-22T18:56:11.477Z,102023.56
2023-01-22T19:01:19.817Z,102027.97
2023-01-22T19:06:18.985Z,102030.56
2023-01-22T19:11:16.375Z,102037.44
2023-01-22T19:16:15.423Z,102036.56
2023-01-22T19:21:17.885Z,102039.19
2023-01-22T19:26:21.183Z,102040.97
2023-01-22T19:31:24.527Z,102048.09
2023-01-22T19:36:23.015Z,102050.59
2023-01-22T19:41:19.761Z,102046.13
2023-01-22T19:46:16.146Z,102052.22
2023-01-22T19:51:15.105Z,102053.25
2023-01-22T19:56:16.270Z,102061.97
2023-01-22T20:01:13.614Z,102055.94
2023-01-22T20:06:12.798Z,102053.25
2023-01-22T20:11:11.045Z,102062.00
2023-01-22T20:16:17.096Z,102060.25
2023-01-22T20:21:14.450Z,102066.38
2023-01-22T20:26:11.436Z,102073.38
2023-01-22T20:31:12.719Z,102069.06
2023-01-22T20:36:15.017Z,102075.06
2023-01-22T20:41:12.304Z,102078.63
2023-01-22T20:46:12.480Z,102090.84
2023-01-22T20:51:15.614Z,102083.03
2023-01-22T20:56:14.569Z,102083.00
2023-01-22T21:01:18.870Z,102091.63
2023-01-22T21:06:18.771Z,102090.81
2023-01-22T21:11:17.959Z,102085.56
2023-01-22T21:16:17.119Z,102092.56
2023-01-22T21:21:17.857Z,102090.81
2023-01-22T21:26:16.266Z,102095.16
2023-01-22T21:31:14.711Z,102097.78
2023-01-22T21:36:12.474Z,102102.13
2023-01-22T21:41:12.483Z,102103.91
2023-01-22T21:46:21.924Z,102090.78
2023-01-22T21:51:19.021Z,102089.09
2023-01-22T21:56:15.453Z,102092.59
2023-01-22T22:01:15.288Z,102093.38
2023-01-22T22:06:13.346Z,102085.56
2023-01-22T22:11:10.937Z,102078.56
2023-01-22T22:16:08.682Z,102083.75
2023-01-22T22:21:08.131Z,102080.09
2023-01-22T22:26:06.774Z,102077.63
2023-01-22T22:31:13.821Z,102084.69
2023-01-22T22:36:12.099Z,102084.72
2023-01-22T22:41:13.614Z,102088.28
2023-01-22T22:46:16.705Z,102088.28
2023-01-22T22:51:19.962Z,102094.44
2023-01-22T22:56:16.324Z,102097.97
2023-01-22T23:01:15.519Z,102098.84
2023-01-22T23:06:15.110Z,102100.47
2023-01-22T23:11:14.479Z,102107.50
2023-01-22T23:16:14.877Z,102105.69
2023-01-22T23:21:14.495Z,102108.28
2023-01-22T23:26:14.440Z,102119.53
2023-01-22T23:31:13.225Z,102126.53
2023-01-22T23:36:14.814Z,102126.50
2023-01-22T23:41:16.158Z,102122.94
2023-01-22T23:46:16.444Z,102133.44
2023-01-22T23:51:14.712Z,102127.34
2023-01-22T23:56:12.453Z,102135.13
